sensor_id;sensor_type;location;lat;lon;timestamp;pressure;altitude;pressure_sealevel;temperature;humidity
5954;BME280;3002;42.642;24.812;2024-03-25T00:02:07;94816.94;;;16.54;56.01
5954;BME280;3002;42.642;24.812;2024-03-25T00:04:33;94799.22;;;16.57;55.69
5954;BME280;3002;42.642;24.812;2024-03-25T00:06:58;94816.38;;;16.68;56.01
5954;BME280;3002;42.642;24.812;2024-03-25T00:09:24;94803.44;;;16.84;55.57
5954;BME280;3002;42.642;24.812;2024-03-25T00:11:50;94815.16;;;16.66;56.65
5954;BME280;3002;42.642;24.812;2024-03-25T00:14:20;94786.13;;;16.63;56.19
5954;BME280;3002;42.642;24.812;2024-03-25T00:16:45;94806.56;;;16.60;56.59
5954;BME280;3002;42.642;24.812;2024-03-25T00:19:12;94808.97;;;16.65;57.38
5954;BME280;3002;42.642;24.812;2024-03-25T00:21:37;94780.63;;;16.29;57.59
5954;BME280;3002;42.642;24.812;2024-03-25T00:24:03;94792.25;;;16.56;57.14
5954;BME280;3002;42.642;24.812;2024-03-25T00:26:29;94790.53;;;16.44;56.94
5954;BME280;3002;42.642;24.812;2024-03-25T00:28:54;94820.94;;;16.64;57.09
5954;BME280;3002;42.642;24.812;2024-03-25T00:31:20;94809.03;;;16.16;57.95
5954;BME280;3002;42.642;24.812;2024-03-25T00:33:45;94831.28;;;16.05;58.83
5954;BME280;3002;42.642;24.812;2024-03-25T00:36:11;94789.97;;;15.40;60.72
5954;BME280;3002;42.642;24.812;2024-03-25T00:38:37;94812.22;;;15.75;60.86
5954;BME280;3002;42.642;24.812;2024-03-25T00:41:03;94779.50;;;15.81;60.33
5954;BME280;3002;42.642;24.812;2024-03-25T00:43:28;94757.28;;;15.68;60.51
5954;BME280;3002;42.642;24.812;2024-03-25T00:45:54;94788.78;;;16.06;60.39
5954;BME280;3002;42.642;24.812;2024-03-25T00:48:19;94777.34;;;15.90;60.35
5954;BME280;3002;42.642;24.812;2024-03-25T00:50:45;94767.69;;;15.46;61.51
5954;BME280;3002;42.642;24.812;2024-03-25T00:53:10;94765.94;;;15.35;61.43
5954;BME280;3002;42.642;24.812;2024-03-25T00:55:37;94756.06;;;15.42;61.31
5954;BME280;3002;42.642;24.812;2024-03-25T00:58:02;94757.16;;;15.61;60.72
5954;BME280;3002;42.642;24.812;2024-03-25T01:00:29;94786.25;;;15.90;60.34
5954;BME280;3002;42.642;24.812;2024-03-25T01:02:54;94791.09;;;15.81;60.65
5954;BME280;3002;42.642;24.812;2024-03-25T01:05:20;94792.66;;;15.82;60.19
5954;BME280;3002;42.642;24.812;2024-03-25T01:07:45;94777.47;;;15.74;60.59
5954;BME280;3002;42.642;24.812;2024-03-25T01:10:11;94766.03;;;15.61;60.66
5954;BME280;3002;42.642;24.812;2024-03-25T01:12:36;94757.00;;;15.73;60.28
5954;BME280;3002;42.642;24.812;2024-03-25T01:15:02;94745.72;;;15.67;60.94
5954;BME280;3002;42.642;24.812;2024-03-25T01:17:28;94737.94;;;16.15;59.16
5954;BME280;3002;42.642;24.812;2024-03-25T01:19:53;94716.69;;;15.41;61.85
5954;BME280;3002;42.642;24.812;2024-03-25T01:22:19;94718.06;;;15.55;62.24
5954;BME280;3002;42.642;24.812;2024-03-25T01:24:44;94724.13;;;15.48;62.63
5954;BME280;3002;42.642;24.812;2024-03-25T01:27:10;94731.22;;;15.79;62.55
5954;BME280;3002;42.642;24.812;2024-03-25T01:29:35;94720.50;;;15.40;64.03
5954;BME280;3002;42.642;24.812;2024-03-25T01:32:00;94730.72;;;15.50;64.95
5954;BME280;3002;42.642;24.812;2024-03-25T01:34:27;94709.75;;;14.98;67.23
5954;BME280;3002;42.642;24.812;2024-03-25T01:36:53;94753.72;;;14.98;67.23
5954;BME280;3002;42.642;24.812;2024-03-25T01:39:18;94807.69;;;14.98;67.99
5954;BME280;3002;42.642;24.812;2024-03-25T01:41:44;94856.84;;;14.53;70.18
5954;BME280;3002;42.642;24.812;2024-03-25T01:44:10;94842.09;;;14.15;71.57
5954;BME280;3002;42.642;24.812;2024-03-25T01:46:36;94885.28;;;13.16;90.29
5954;BME280;3002;42.642;24.812;2024-03-25T01:49:02;94879.13;;;12.50;100.00
5954;BME280;3002;42.642;24.812;2024-03-25T01:51:27;94877.59;;;11.67;100.00
5954;BME280;3002;42.642;24.812;2024-03-25T01:53:54;94878.34;;;11.89;100.00
5954;BME280;3002;42.642;24.812;2024-03-25T01:56:21;94865.78;;;12.05;100.00
5954;BME280;3002;42.642;24.812;2024-03-25T01:58:49;94864.00;;;12.33;100.00
5954;BME280;3002;42.642;24.812;2024-03-25T02:01:15;94874.66;;;12.42;100.00
5954;BME280;3002;42.642;24.812;2024-03-25T02:03:42;94895.91;;;12.47;100.00
5954;BME280;3002;42.642;24.812;2024-03-25T02:06:15;94904.88;;;12.02;100.00
5954;BME280;3002;42.642;24.812;2024-03-25T02:08:41;94915.63;;;11.69;100.00
5954;BME280;3002;42.642;24.812;2024-03-25T02:11:07;94910.72;;;11.38;100.00
5954;BME280;3002;42.642;24.812;2024-03-25T02:13:35;94899.53;;;11.36;100.00
5954;BME280;3002;42.642;24.812;2024-03-25T02:16:01;94875.34;;;11.24;100.00
5954;BME280;3002;42.642;24.812;2024-03-25T02:18:26;94889.03;;;11.10;100.00
5954;BME280;3002;42.642;24.812;2024-03-25T02:20:52;94872.28;;;11.13;100.00
5954;BME280;3002;42.642;24.812;2024-03-25T02:23:18;94860.91;;;11.16;100.00
5954;BME280;3002;42.642;24.812;2024-03-25T02:25:52;94885.53;;;11.64;100.00
5954;BME280;3002;42.642;24.812;2024-03-25T02:28:18;94882.03;;;11.63;100.00
5954;BME280;3002;42.642;24.812;2024-03-25T02:30:43;94873.28;;;11.87;98.18
5954;BME280;3002;42.642;24.812;2024-03-25T02:33:09;94883.56;;;11.40;98.51
5954;BME280;3002;42.642;24.812;2024-03-25T02:35:35;94892.72;;;11.72;100.00
5954;BME280;3002;42.642;24.812;2024-03-25T02:38:01;94930.53;;;12.00;100.00
5954;BME280;3002;42.642;24.812;2024-03-25T02:40:28;94934.22;;;11.41;100.00
5954;BME280;3002;42.642;24.812;2024-03-25T02:42:54;94909.84;;;11.79;100.00
5954;BME280;3002;42.642;24.812;2024-03-25T02:45:19;94894.66;;;11.50;100.00
5954;BME280;3002;42.642;24.812;2024-03-25T02:47:46;94908.13;;;11.96;100.00
5954;BME280;3002;42.642;24.812;2024-03-25T02:50:11;94904.84;;;11.90;100.00
5954;BME280;3002;42.642;24.812;2024-03-25T02:52:36;94922.91;;;12.14;100.00
5954;BME280;3002;42.642;24.812;2024-03-25T02:55:02;94910.50;;;11.76;100.00
5954;BME280;3002;42.642;24.812;2024-03-25T02:57:27;94891.78;;;11.89;100.00
5954;BME280;3002;42.642;24.812;2024-03-25T02:59:53;94849.97;;;11.79;100.00
5954;BME280;3002;42.642;24.812;2024-03-25T03:02:18;94854.81;;;12.35;100.00
5954;BME280;3002;42.642;24.812;2024-03-25T03:04:44;94856.53;;;12.15;100.00
5954;BME280;3002;42.642;24.812;2024-03-25T03:07:09;94838.41;;;11.54;100.00
5954;BME280;3002;42.642;24.812;2024-03-25T03:09:35;94813.38;;;11.17;100.00
5954;BME280;3002;42.642;24.812;2024-03-25T03:12:00;94806.50;;;10.53;100.00
5954;BME280;3002;42.642;24.812;2024-03-25T03:14:26;94844.16;;;10.78;100.00
5954;BME280;3002;42.642;24.812;2024-03-25T03:16:51;94862.34;;;11.47;100.00
5954;BME280;3002;42.642;24.812;2024-03-25T03:19:26;94873.75;;;11.56;100.00
5954;BME280;3002;42.642;24.812;2024-03-25T03:21:52;94912.13;;;11.57;100.00
5954;BME280;3002;42.642;24.812;2024-03-25T03:24:18;94910.50;;;11.64;100.00
5954;BME280;3002;42.642;24.812;2024-03-25T03:26:44;94926.19;;;10.99;100.00
5954;BME280;3002;42.642;24.812;2024-03-25T03:29:09;94908.84;;;10.97;100.00
5954;BME280;3002;42.642;24.812;2024-03-25T03:31:35;94907.94;;;11.35;100.00
5954;BME280;3002;42.642;24.812;2024-03-25T03:34:01;94898.72;;;10.82;100.00
5954;BME280;3002;42.642;24.812;2024-03-25T03:36:26;94915.06;;;10.38;100.00
5954;BME280;3002;42.642;24.812;2024-03-25T03:38:52;94912.50;;;10.04;100.00
5954;BME280;3002;42.642;24.812;2024-03-25T03:41:18;94931.09;;;11.18;100.00
5954;BME280;3002;42.642;24.812;2024-03-25T03:43:43;94932.38;;;11.87;100.00
5954;BME280;3002;42.642;24.812;2024-03-25T03:46:09;94926.44;;;11.82;100.00
5954;BME280;3002;42.642;24.812;2024-03-25T03:48:35;94912.16;;;11.36;100.00
5954;BME280;3002;42.642;24.812;2024-03-25T03:51:01;94928.47;;;11.51;100.00
5954;BME280;3002;42.642;24.812;2024-03-25T03:53:27;94948.47;;;11.33;100.00
5954;BME280;3002;42.642;24.812;2024-03-25T03:55:57;94936.56;;;11.64;100.00
5954;BME280;3002;42.642;24.812;2024-03-25T03:58:23;94915.06;;;10.89;100.00
5954;BME280;3002;42.642;24.812;2024-03-25T04:00:50;94909.38;;;11.11;100.00
5954;BME280;3002;42.642;24.812;2024-03-25T04:03:16;94919.63;;;11.30;100.00
5954;BME280;3002;42.642;24.812;2024-03-25T04:05:41;94933.06;;;11.30;100.00
5954;BME280;3002;42.642;24.812;2024-03-25T04:08:07;94910.84;;;11.42;100.00
5954;BME280;3002;42.642;24.812;2024-03-25T04:10:33;94931.06;;;11.60;100.00
5954;BME280;3002;42.642;24.812;2024-03-25T04:12:59;94914.31;;;11.21;100.00
5954;BME280;3002;42.642;24.812;2024-03-25T04:15:25;94912.38;;;11.64;98.68
5954;BME280;3002;42.642;24.812;2024-03-25T04:17:51;94933.50;;;11.53;100.00
5954;BME280;3002;42.642;24.812;2024-03-25T04:20:17;94942.81;;;11.35;100.00
5954;BME280;3002;42.642;24.812;2024-03-25T04:22:43;94934.97;;;10.29;100.00
5954;BME280;3002;42.642;24.812;2024-03-25T04:25:10;94915.59;;;9.76;100.00
5954;BME280;3002;42.642;24.812;2024-03-25T04:27:42;94920.09;;;10.02;100.00
5954;BME280;3002;42.642;24.812;2024-03-25T04:30:09;94988.66;;;11.00;100.00
5954;BME280;3002;42.642;24.812;2024-03-25T04:32:35;94990.50;;;11.08;100.00
5954;BME280;3002;42.642;24.812;2024-03-25T04:35:01;95006.66;;;11.20;100.00
5954;BME280;3002;42.642;24.812;2024-03-25T04:37:27;94993.44;;;11.57;100.00
5954;BME280;3002;42.642;24.812;2024-03-25T04:39:56;95011.44;;;11.57;100.00
5954;BME280;3002;42.642;24.812;2024-03-25T04:42:22;94980.53;;;10.88;100.00
5954;BME280;3002;42.642;24.812;2024-03-25T04:44:49;94984.25;;;11.04;100.00
5954;BME280;3002;42.642;24.812;2024-03-25T04:47:29;95000.66;;;11.65;100.00
5954;BME280;3002;42.642;24.812;2024-03-25T04:49:55;95003.72;;;11.97;96.95
5954;BME280;3002;42.642;24.812;2024-03-25T04:52:21;94985.69;;;11.97;97.46
5954;BME280;3002;42.642;24.812;2024-03-25T04:54:49;94998.53;;;12.37;93.02
5954;BME280;3002;42.642;24.812;2024-03-25T04:57:15;94977.03;;;12.49;90.60
5954;BME280;3002;42.642;24.812;2024-03-25T04:59:40;94996.88;;;12.69;90.21
5954;BME280;3002;42.642;24.812;2024-03-25T05:02:06;94950.25;;;13.02;90.18
5954;BME280;3002;42.642;24.812;2024-03-25T05:04:32;94961.56;;;13.48;76.84
5954;BME280;3002;42.642;24.812;2024-03-25T05:06:57;94952.84;;;12.74;79.48
5954;BME280;3002;42.642;24.812;2024-03-25T05:09:23;94978.16;;;13.62;83.08
5954;BME280;3002;42.642;24.812;2024-03-25T05:11:48;94994.94;;;13.19;71.21
5954;BME280;3002;42.642;24.812;2024-03-25T05:14:14;94967.97;;;12.66;60.39
5954;BME280;3002;42.642;24.812;2024-03-25T05:16:40;95029.00;;;12.41;61.28
5954;BME280;3002;42.642;24.812;2024-03-25T05:19:05;95020.09;;;12.98;57.30
5954;BME280;3002;42.642;24.812;2024-03-25T05:21:31;95029.13;;;13.18;57.57
5954;BME280;3002;42.642;24.812;2024-03-25T05:23:57;95014.41;;;12.18;55.65
5954;BME280;3002;42.642;24.812;2024-03-25T05:26:22;95033.88;;;12.60;61.53
5954;BME280;3002;42.642;24.812;2024-03-25T05:28:55;95044.94;;;12.71;57.27
5954;BME280;3002;42.642;24.812;2024-03-25T05:31:21;95041.25;;;12.51;57.82
5954;BME280;3002;42.642;24.812;2024-03-25T05:33:46;94995.97;;;12.77;59.99
5954;BME280;3002;42.642;24.812;2024-03-25T05:36:12;94989.59;;;12.45;58.03
5954;BME280;3002;42.642;24.812;2024-03-25T05:38:38;95041.91;;;12.48;56.56
5954;BME280;3002;42.642;24.812;2024-03-25T05:41:03;95017.91;;;11.97;56.89
5954;BME280;3002;42.642;24.812;2024-03-25T05:43:29;95028.19;;;11.83;56.28
5954;BME280;3002;42.642;24.812;2024-03-25T05:45:55;95045.03;;;11.63;56.55
5954;BME280;3002;42.642;24.812;2024-03-25T05:48:23;95039.41;;;11.56;54.78
5954;BME280;3002;42.642;24.812;2024-03-25T05:51:02;95037.84;;;11.55;56.72
5954;BME280;3002;42.642;24.812;2024-03-25T05:53:30;94997.34;;;10.97;55.99
5954;BME280;3002;42.642;24.812;2024-03-25T05:55:55;94997.19;;;11.65;55.25
5954;BME280;3002;42.642;24.812;2024-03-25T05:58:21;95009.25;;;11.59;56.19
5954;BME280;3002;42.642;24.812;2024-03-25T06:00:48;94990.41;;;11.46;55.27
5954;BME280;3002;42.642;24.812;2024-03-25T06:03:16;95005.47;;;11.93;55.26
5954;BME280;3002;42.642;24.812;2024-03-25T06:05:43;95012.13;;;11.53;55.18
5954;BME280;3002;42.642;24.812;2024-03-25T06:08:09;95032.09;;;11.44;55.70
5954;BME280;3002;42.642;24.812;2024-03-25T06:10:43;95017.69;;;11.48;54.50
5954;BME280;3002;42.642;24.812;2024-03-25T06:13:09;95051.56;;;11.83;54.76
5954;BME280;3002;42.642;24.812;2024-03-25T06:15:34;95026.06;;;11.47;54.87
5954;BME280;3002;42.642;24.812;2024-03-25T06:18:00;95061.22;;;11.75;55.33
5954;BME280;3002;42.642;24.812;2024-03-25T06:20:25;95053.22;;;12.08;54.87
5954;BME280;3002;42.642;24.812;2024-03-25T06:22:51;95040.84;;;11.74;53.04
5954;BME280;3002;42.642;24.812;2024-03-25T06:25:16;95000.91;;;11.72;53.42
5954;BME280;3002;42.642;24.812;2024-03-25T06:27:42;95068.50;;;11.95;54.88
5954;BME280;3002;42.642;24.812;2024-03-25T06:30:17;95068.13;;;11.85;53.60
5954;BME280;3002;42.642;24.812;2024-03-25T06:33:03;95057.31;;;11.72;53.69
5954;BME280;3002;42.642;24.812;2024-03-25T06:35:46;95064.47;;;11.18;53.98
5954;BME280;3002;42.642;24.812;2024-03-25T06:38:12;95028.56;;;11.52;53.95
5954;BME280;3002;42.642;24.812;2024-03-25T06:40:39;95073.38;;;11.10;54.55
5954;BME280;3002;42.642;24.812;2024-03-25T06:43:04;95041.75;;;11.15;54.85
5954;BME280;3002;42.642;24.812;2024-03-25T06:45:30;95034.16;;;11.17;55.01
5954;BME280;3002;42.642;24.812;2024-03-25T06:47:56;95076.81;;;11.40;55.19
5954;BME280;3002;42.642;24.812;2024-03-25T06:50:23;95074.34;;;11.26;55.43
5954;BME280;3002;42.642;24.812;2024-03-25T06:52:48;95029.91;;;12.45;52.67
5954;BME280;3002;42.642;24.812;2024-03-25T06:55:14;95066.50;;;14.84;48.48
5954;BME280;3002;42.642;24.812;2024-03-25T06:57:40;95031.06;;;16.30;45.44
5954;BME280;3002;42.642;24.812;2024-03-25T07:00:06;95012.66;;;14.28;46.84
5954;BME280;3002;42.642;24.812;2024-03-25T07:02:35;95051.72;;;13.38;48.35
5954;BME280;3002;42.642;24.812;2024-03-25T07:05:00;95078.25;;;13.64;48.80
5954;BME280;3002;42.642;24.812;2024-03-25T07:07:26;95046.63;;;12.63;51.68
5954;BME280;3002;42.642;24.812;2024-03-25T07:09:51;95046.91;;;12.25;51.19
5954;BME280;3002;42.642;24.812;2024-03-25T07:12:17;95046.84;;;12.58;51.58
5954;BME280;3002;42.642;24.812;2024-03-25T07:14:43;95049.69;;;12.28;51.72
5954;BME280;3002;42.642;24.812;2024-03-25T07:17:10;95085.66;;;12.03;51.69
5954;BME280;3002;42.642;24.812;2024-03-25T07:19:35;95040.44;;;12.05;51.25
5954;BME280;3002;42.642;24.812;2024-03-25T07:22:00;95084.69;;;12.53;50.99
5954;BME280;3002;42.642;24.812;2024-03-25T07:24:26;95065.31;;;12.47;50.60
5954;BME280;3002;42.642;24.812;2024-03-25T07:26:52;95072.59;;;12.59;50.46
5954;BME280;3002;42.642;24.812;2024-03-25T07:29:17;95063.66;;;11.68;51.64
5954;BME280;3002;42.642;24.812;2024-03-25T07:31:44;95059.13;;;11.39;52.32
5954;BME280;3002;42.642;24.812;2024-03-25T07:34:09;95025.94;;;11.22;53.00
5954;BME280;3002;42.642;24.812;2024-03-25T07:36:37;95056.25;;;12.07;52.04
5954;BME280;3002;42.642;24.812;2024-03-25T07:39:03;95032.28;;;13.20;49.20
5954;BME280;3002;42.642;24.812;2024-03-25T07:41:31;95054.56;;;14.69;45.52
5954;BME280;3002;42.642;24.812;2024-03-25T07:43:57;95072.84;;;15.08;44.71
5954;BME280;3002;42.642;24.812;2024-03-25T07:46:23;95056.34;;;16.60;42.48
5954;BME280;3002;42.642;24.812;2024-03-25T07:48:49;95037.03;;;16.39;42.12
5954;BME280;3002;42.642;24.812;2024-03-25T07:51:18;95042.97;;;16.91;40.78
5954;BME280;3002;42.642;24.812;2024-03-25T07:53:43;95051.63;;;17.00;39.03
5954;BME280;3002;42.642;24.812;2024-03-25T07:56:09;95050.16;;;15.44;41.69
5954;BME280;3002;42.642;24.812;2024-03-25T07:58:34;95028.31;;;15.88;42.30
5954;BME280;3002;42.642;24.812;2024-03-25T08:01:00;95032.22;;;15.71;41.44
5954;BME280;3002;42.642;24.812;2024-03-25T08:06:57;95029.38;;;17.66;39.28
5954;BME280;3002;42.642;24.812;2024-03-25T08:09:22;95077.34;;;17.36;39.44
5954;BME280;3002;42.642;24.812;2024-03-25T08:11:48;95053.47;;;16.30;40.04
5954;BME280;3002;42.642;24.812;2024-03-25T08:14:13;95065.91;;;17.46;38.64
5954;BME280;3002;42.642;24.812;2024-03-25T08:16:39;95026.91;;;18.52;39.20
5954;BME280;3002;42.642;24.812;2024-03-25T08:19:04;95075.34;;;17.82;37.70
5954;BME280;3002;42.642;24.812;2024-03-25T08:21:31;95102.75;;;19.12;37.21
5954;BME280;3002;42.642;24.812;2024-03-25T08:23:56;95060.50;;;16.54;38.59
5954;BME280;3002;42.642;24.812;2024-03-25T08:26:22;95039.47;;;17.96;39.07
5954;BME280;3002;42.642;24.812;2024-03-25T08:28:47;95061.00;;;18.15;36.29
5954;BME280;3002;42.642;24.812;2024-03-25T08:31:15;95069.69;;;18.62;37.03
5954;BME280;3002;42.642;24.812;2024-03-25T08:33:40;95084.25;;;19.76;34.91
5954;BME280;3002;42.642;24.812;2024-03-25T08:36:06;95126.69;;;18.95;35.35
5954;BME280;3002;42.642;24.812;2024-03-25T08:38:32;95180.00;;;18.13;36.04
5954;BME280;3002;42.642;24.812;2024-03-25T08:40:57;95191.81;;;17.52;38.61
5954;BME280;3002;42.642;24.812;2024-03-25T08:43:23;95157.91;;;14.70;41.08
5954;BME280;3002;42.642;24.812;2024-03-25T08:45:48;95159.16;;;17.45;38.21
5954;BME280;3002;42.642;24.812;2024-03-25T08:48:20;95201.53;;;17.30;38.39
5954;BME280;3002;42.642;24.812;2024-03-25T08:50:45;95139.81;;;16.00;40.39
5954;BME280;3002;42.642;24.812;2024-03-25T08:53:11;95126.50;;;15.25;42.54
5954;BME280;3002;42.642;24.812;2024-03-25T08:55:36;95194.50;;;15.94;41.29
5954;BME280;3002;42.642;24.812;2024-03-25T08:58:02;95180.81;;;14.76;41.91
5954;BME280;3002;42.642;24.812;2024-03-25T09:00:28;95205.50;;;13.61;45.43
5954;BME280;3002;42.642;24.812;2024-03-25T09:02:54;95223.50;;;13.69;45.76
5954;BME280;3002;42.642;24.812;2024-03-25T09:05:20;95212.09;;;12.81;46.35
5954;BME280;3002;42.642;24.812;2024-03-25T09:07:46;95206.28;;;13.49;46.40
5954;BME280;3002;42.642;24.812;2024-03-25T09:10:19;95219.75;;;13.37;46.40
5954;BME280;3002;42.642;24.812;2024-03-25T09:13:04;95214.50;;;13.65;45.58
5954;BME280;3002;42.642;24.812;2024-03-25T09:15:29;95227.59;;;14.28;44.77
5954;BME280;3002;42.642;24.812;2024-03-25T09:18:00;95237.22;;;14.41;43.96
5954;BME280;3002;42.642;24.812;2024-03-25T09:20:26;95245.69;;;13.66;45.62
5954;BME280;3002;42.642;24.812;2024-03-25T09:22:51;95236.91;;;14.98;43.73
5954;BME280;3002;42.642;24.812;2024-03-25T09:25:17;95167.16;;;13.27;46.43
5954;BME280;3002;42.642;24.812;2024-03-25T09:27:47;95257.59;;;13.65;45.62
5954;BME280;3002;42.642;24.812;2024-03-25T09:30:13;95217.78;;;14.35;44.66
5954;BME280;3002;42.642;24.812;2024-03-25T09:32:42;95277.66;;;13.55;45.72
5954;BME280;3002;42.642;24.812;2024-03-25T09:35:09;95257.41;;;13.25;45.86
5954;BME280;3002;42.642;24.812;2024-03-25T09:37:35;95247.59;;;14.14;44.93
5954;BME280;3002;42.642;24.812;2024-03-25T09:40:00;95272.44;;;13.83;43.97
5954;BME280;3002;42.642;24.812;2024-03-25T09:42:27;95244.69;;;13.83;43.28
5954;BME280;3002;42.642;24.812;2024-03-25T09:44:54;95265.25;;;13.63;43.11
5954;BME280;3002;42.642;24.812;2024-03-25T09:47:21;95207.63;;;13.55;42.96
5954;BME280;3002;42.642;24.812;2024-03-25T09:49:47;95258.91;;;14.32;43.44
5954;BME280;3002;42.642;24.812;2024-03-25T09:52:17;95236.28;;;15.17;40.30
5954;BME280;3002;42.642;24.812;2024-03-25T09:54:42;95223.59;;;15.65;40.72
5954;BME280;3002;42.642;24.812;2024-03-25T09:57:08;95261.63;;;17.36;37.43
5954;BME280;3002;42.642;24.812;2024-03-25T09:59:34;95255.13;;;17.86;36.58
5954;BME280;3002;42.642;24.812;2024-03-25T10:02:01;95240.09;;;17.24;36.77
5954;BME280;3002;42.642;24.812;2024-03-25T10:04:27;95256.09;;;17.09;36.76
5954;BME280;3002;42.642;24.812;2024-03-25T10:06:52;95269.88;;;17.43;36.73
5954;BME280;3002;42.642;24.812;2024-03-25T10:09:22;95257.25;;;16.89;36.79
5954;BME280;3002;42.642;24.812;2024-03-25T10:11:48;95278.63;;;16.94;36.21
5954;BME280;3002;42.642;24.812;2024-03-25T10:14:17;95268.56;;;17.14;35.49
5954;BME280;3002;42.642;24.812;2024-03-25T10:16:44;95254.03;;;17.45;36.08
5954;BME280;3002;42.642;24.812;2024-03-25T10:19:10;95258.53;;;16.41;36.82
5954;BME280;3002;42.642;24.812;2024-03-25T10:21:35;95261.59;;;16.39;36.95
5954;BME280;3002;42.642;24.812;2024-03-25T10:24:04;95263.94;;;15.14;38.02
5954;BME280;3002;42.642;24.812;2024-03-25T10:26:32;95254.50;;;15.36;38.70
5954;BME280;3002;42.642;24.812;2024-03-25T10:29:02;95235.13;;;16.68;36.93
5954;BME280;3002;42.642;24.812;2024-03-25T10:31:30;95260.34;;;15.38;39.05
5954;BME280;3002;42.642;24.812;2024-03-25T10:33:55;95239.69;;;14.46;39.97
5954;BME280;3002;42.642;24.812;2024-03-25T10:36:21;95271.03;;;15.35;39.42
5954;BME280;3002;42.642;24.812;2024-03-25T10:38:49;95280.63;;;17.17;37.83
5954;BME280;3002;42.642;24.812;2024-03-25T10:41:17;95251.47;;;16.36;38.32
5954;BME280;3002;42.642;24.812;2024-03-25T10:43:45;95316.53;;;15.92;38.98
5954;BME280;3002;42.642;24.812;2024-03-25T10:46:16;95283.47;;;14.67;38.98
5954;BME280;3002;42.642;24.812;2024-03-25T10:48:47;95291.13;;;15.06;38.84
5954;BME280;3002;42.642;24.812;2024-03-25T10:51:13;95282.16;;;15.61;39.67
5954;BME280;3002;42.642;24.812;2024-03-25T10:53:41;95276.69;;;14.73;42.39
5954;BME280;3002;42.642;24.812;2024-03-25T10:56:07;95273.44;;;15.08;41.97
5954;BME280;3002;42.642;24.812;2024-03-25T10:58:33;95291.59;;;15.67;41.55
5954;BME280;3002;42.642;24.812;2024-03-25T11:01:00;95303.13;;;16.47;42.16
5954;BME280;3002;42.642;24.812;2024-03-25T11:03:26;95290.38;;;16.82;38.08
5954;BME280;3002;42.642;24.812;2024-03-25T11:05:52;95304.13;;;15.75;38.65
5954;BME280;3002;42.642;24.812;2024-03-25T11:08:18;95267.97;;;15.80;38.26
5954;BME280;3002;42.642;24.812;2024-03-25T11:10:44;95263.47;;;15.40;38.34
5954;BME280;3002;42.642;24.812;2024-03-25T11:13:18;95285.72;;;15.21;39.52
5954;BME280;3002;42.642;24.812;2024-03-25T11:15:47;95295.59;;;15.89;38.79
5954;BME280;3002;42.642;24.812;2024-03-25T11:18:17;95297.34;;;15.66;38.86
5954;BME280;3002;42.642;24.812;2024-03-25T11:20:43;95264.38;;;15.60;39.41
5954;BME280;3002;42.642;24.812;2024-03-25T11:23:10;95285.31;;;14.51;41.79
5954;BME280;3002;42.642;24.812;2024-03-25T11:25:37;95279.94;;;14.79;41.36
5954;BME280;3002;42.642;24.812;2024-03-25T11:28:03;95290.16;;;14.09;44.34
5954;BME280;3002;42.642;24.812;2024-03-25T11:30:29;95265.69;;;15.22;40.67
5954;BME280;3002;42.642;24.812;2024-03-25T11:32:57;95274.34;;;16.93;37.12
5954;BME280;3002;42.642;24.812;2024-03-25T11:35:23;95287.16;;;16.77;35.71
5954;BME280;3002;42.642;24.812;2024-03-25T11:37:50;95267.41;;;19.16;32.67
5954;BME280;3002;42.642;24.812;2024-03-25T11:40:17;95286.78;;;18.02;33.62
5954;BME280;3002;42.642;24.812;2024-03-25T11:42:44;95274.09;;;18.62;32.90
5954;BME280;3002;42.642;24.812;2024-03-25T11:47:45;95272.97;;;19.27;31.02
5954;BME280;3002;42.642;24.812;2024-03-25T11:50:12;95257.53;;;18.71;31.28
5954;BME280;3002;42.642;24.812;2024-03-25T11:52:38;95271.28;;;18.55;30.43
5954;BME280;3002;42.642;24.812;2024-03-25T11:55:04;95263.28;;;18.36;30.54
5954;BME280;3002;42.642;24.812;2024-03-25T11:57:30;95296.94;;;19.55;29.76
5954;BME280;3002;42.642;24.812;2024-03-25T11:59:57;95249.19;;;19.58;29.50
5954;BME280;3002;42.642;24.812;2024-03-25T12:02:23;95281.91;;;19.28;29.04
5954;BME280;3002;42.642;24.812;2024-03-25T12:04:50;95296.66;;;18.66;30.33
5954;BME280;3002;42.642;24.812;2024-03-25T12:07:15;95285.66;;;19.16;30.41
5954;BME280;3002;42.642;24.812;2024-03-25T12:09:41;95255.63;;;19.02;30.46
5954;BME280;3002;42.642;24.812;2024-03-25T12:12:26;95281.06;;;19.57;28.19
5954;BME280;3002;42.642;24.812;2024-03-25T12:14:53;95296.69;;;20.08;28.09
5954;BME280;3002;42.642;24.812;2024-03-25T12:17:19;95303.69;;;20.57;27.88
5954;BME280;3002;42.642;24.812;2024-03-25T12:20:07;95288.38;;;19.90;29.01
5954;BME280;3002;42.642;24.812;2024-03-25T12:22:36;95299.72;;;19.25;29.99
5954;BME280;3002;42.642;24.812;2024-03-25T12:25:03;95254.59;;;18.00;31.35
5954;BME280;3002;42.642;24.812;2024-03-25T12:27:32;95302.91;;;18.97;30.81
5954;BME280;3002;42.642;24.812;2024-03-25T12:30:06;95296.59;;;19.19;30.37
5954;BME280;3002;42.642;24.812;2024-03-25T12:32:43;95278.72;;;19.56;28.95
5954;BME280;3002;42.642;24.812;2024-03-25T12:35:16;95272.59;;;19.66;28.84
5954;BME280;3002;42.642;24.812;2024-03-25T12:37:56;95324.81;;;19.45;29.91
5954;BME280;3002;42.642;24.812;2024-03-25T12:40:27;95297.13;;;20.10;28.18
5954;BME280;3002;42.642;24.812;2024-03-25T12:42:53;95291.47;;;21.02;27.78
5954;BME280;3002;42.642;24.812;2024-03-25T12:45:23;95280.50;;;20.26;27.48
5954;BME280;3002;42.642;24.812;2024-03-25T12:48:07;95302.56;;;19.36;28.88
5954;BME280;3002;42.642;24.812;2024-03-25T12:50:32;95312.22;;;19.30;28.29
5954;BME280;3002;42.642;24.812;2024-03-25T12:52:58;95286.28;;;20.17;28.19
5954;BME280;3002;42.642;24.812;2024-03-25T12:55:23;95309.34;;;19.86;28.67
5954;BME280;3002;42.642;24.812;2024-03-25T12:57:49;95282.88;;;19.46;29.23
5954;BME280;3002;42.642;24.812;2024-03-25T13:00:15;95304.13;;;17.74;31.80
5954;BME280;3002;42.642;24.812;2024-03-25T13:02:40;95335.78;;;16.89;34.22
5954;BME280;3002;42.642;24.812;2024-03-25T13:05:06;95324.47;;;17.84;32.79
5954;BME280;3002;42.642;24.812;2024-03-25T13:07:32;95301.78;;;20.13;30.06
5954;BME280;3002;42.642;24.812;2024-03-25T13:09:57;95307.75;;;20.29;27.88
5954;BME280;3002;42.642;24.812;2024-03-25T13:12:23;95338.00;;;19.09;28.96